Time;durP1;ratioP1;P1;durP2;ratioP2;P2;SDS_P1;SDS_P2;PMS_P1;PMS_P2;Temp;Humidity;BMP_temperature;BMP_pressure;BME280_temperature;BME280_humidity;BME280_pressure;Samples;Min_cycle;Max_cycle;Signal;HPM_P1;HPM_P2
2021/11/12 00:13:04;;;;;;;23.47;15.43;;;;;;;0.31;99.93;101164.66;1773637;81;21348;-76
2021/11/12 00:16:00;;;;;;;18.50;13.98;;;;;;;0.29;100.00;101166.11;1774909;80;21341;-76
2021/11/12 00:19:04;;;;;;;20.45;14.83;;;;;;;0.27;100.00;101156.38;1776090;81;21132;-76
2021/11/12 00:22:08;;;;;;;20.05;15.00;;;;;;;0.29;100.00;101155.83;1774479;81;21294;-76
2021/11/12 00:25:15;;;;;;;24.30;15.45;;;;;;;0.30;100.00;101152.17;1775236;81;21274;-76
2021/11/12 00:28:25;;;;;;;22.55;16.15;;;;;;;0.30;100.00;101154.38;1773683;81;21349;-76
2021/11/12 00:31:46;;;;;;;23.25;16.42;;;;;;;0.29;100.00;101144.59;1774022;81;21298;-76
2021/11/12 00:38:13;;;;;;;22.85;18.15;;;;;;;0.27;100.00;101129.47;1774864;81;21825;-76
2021/11/12 00:44:29;;;;;;;25.12;16.35;;;;;;;0.27;100.00;101114.67;1775027;81;21297;-76
2021/11/12 00:47:36;;;;;;;23.00;16.20;;;;;;;0.28;100.00;101113.22;1776209;81;21259;-76
2021/11/12 00:53:50;;;;;;;19.02;14.35;;;;;;;0.27;100.00;101101.22;1773827;81;21310;-76
2021/11/12 00:56:49;;;;;;;18.37;12.43;;;;;;;0.22;100.00;101090.72;1775187;81;21293;-76
2021/11/12 00:59:55;;;;;;;22.35;15.35;;;;;;;0.19;100.00;101085.06;1775152;80;21317;-76
2021/11/12 01:03:01;;;;;;;21.02;14.68;;;;;;;0.17;100.00;101092.34;1774576;81;21293;-76
2021/11/12 01:06:06;;;;;;;21.97;16.85;;;;;;;0.14;100.00;101089.85;1775050;81;21854;-76
2021/11/12 01:09:14;;;;;;;21.35;15.95;;;;;;;0.09;100.00;101083.84;1774566;81;21207;-76
2021/11/12 01:12:20;;;;;;;23.22;15.10;;;;;;;0.11;100.00;101079.75;1775110;81;21365;-76
2021/11/12 01:15:25;;;;;;;24.95;16.27;;;;;;;0.14;100.00;101073.71;1774907;80;21179;-76
2021/11/12 01:18:34;;;;;;;18.62;14.65;;;;;;;0.16;100.00;101065.05;1774922;81;21333;-76
2021/11/12 01:21:39;;;;;;;19.92;14.53;;;;;;;0.18;100.00;101067.64;1775135;81;21853;-76
2021/11/12 01:24:45;;;;;;;24.25;15.78;;;;;;;0.21;100.00;101062.95;1774487;81;21858;-76
2021/11/12 01:27:52;;;;;;;21.77;16.30;;;;;;;0.23;100.00;101071.78;1775452;81;21203;-76
2021/11/12 01:30:57;;;;;;;19.82;15.72;;;;;;;0.28;100.00;101082.27;1774978;80;21344;-76
2021/11/12 01:34:09;;;;;;;20.50;15.23;;;;;;;0.30;100.00;101079.03;1773835;81;21728;-76
2021/11/12 01:37:20;;;;;;;22.20;15.50;;;;;;;0.34;100.00;101079.72;1775003;81;21763;-76
2021/11/12 01:40:29;;;;;;;20.00;14.60;;;;;;;0.38;100.00;101080.80;1774049;81;21321;-76
2021/11/12 01:43:42;;;;;;;21.15;16.02;;;;;;;0.40;100.00;101078.86;1774471;81;21306;-76
2021/11/12 01:46:55;;;;;;;22.50;16.95;;;;;;;0.40;100.00;101077.52;1775156;80;21305;-76
2021/11/12 01:49:55;;;;;;;17.10;12.93;;;;;;;0.39;100.00;101076.27;1775064;81;21372;-76
2021/11/12 01:53:08;;;;;;;22.93;15.55;;;;;;;0.42;100.00;101074.23;1776402;81;21184;-76
2021/11/12 01:56:26;;;;;;;23.98;16.20;;;;;;;0.48;100.00;101067.16;1783960;79;21354;-75
2021/11/12 01:59:20;;;;;;;17.40;14.03;;;;;;;0.50;100.00;101069.75;1807231;79;21878;-76
2021/11/12 02:02:25;;;;;;;27.73;19.57;;;;;;;0.49;100.00;101065.33;1807169;79;21835;-76
2021/11/12 02:05:32;;;;;;;24.60;16.73;;;;;;;0.47;100.00;101068.13;1807125;79;21291;-76
2021/11/12 02:08:36;;;;;;;23.45;17.12;;;;;;;0.49;100.00;101063.98;1807273;79;21283;-76
2021/11/12 02:11:43;;;;;;;21.73;14.95;;;;;;;0.49;100.00;101067.54;1784610;79;21160;-76
2021/11/12 02:14:49;;;;;;;34.15;20.15;;;;;;;0.53;100.00;101061.98;1805337;79;21383;-76
2021/11/12 02:18:00;;;;;;;37.25;22.07;;;;;;;0.48;100.00;101064.95;1789983;80;21240;-76
2021/11/12 02:24:29;;;;;;;34.48;20.68;;;;;;;0.48;100.00;101068.98;1791063;80;21870;-76
2021/11/12 02:28:19;;;;;;;39.30;21.60;;;;;;;0.50;100.00;101073.78;1789784;80;21887;-76
2021/11/12 02:30:52;;;;;;;49.75;26.90;;;;;;;0.52;100.00;101061.12;1788808;79;21168;-76
2021/11/12 02:33:54;;;;;;;36.38;23.27;;;;;;;0.49;100.00;101062.16;1806586;79;21323;-76
2021/11/12 02:37:00;;;;;;;27.67;19.02;;;;;;;0.53;100.00;101063.33;1807187;79;21169;-76
2021/11/12 02:40:06;;;;;;;22.40;16.15;;;;;;;0.57;100.00;101059.00;1807155;79;21252;-76
2021/11/12 02:43:13;;;;;;;19.35;13.60;;;;;;;0.58;100.00;101052.66;1805741;79;21299;-76
2021/11/12 02:46:21;;;;;;;21.62;16.07;;;;;;;0.60;100.00;101043.98;1807174;79;21173;-76
2021/11/12 02:49:27;;;;;;;20.50;14.38;;;;;;;0.62;100.00;101046.61;1807387;79;21204;-76
2021/11/12 02:52:33;;;;;;;17.15;12.80;;;;;;;0.63;100.00;101049.20;1808469;79;21153;-76
2021/11/12 02:55:38;;;;;;;16.35;12.82;;;;;;;0.69;100.00;101044.77;1807179;79;21221;-76
2021/11/12 02:58:44;;;;;;;21.07;12.95;;;;;;;0.71;100.00;101044.20;1806316;79;21334;-76
2021/11/12 03:01:52;;;;;;;12.93;9.90;;;;;;;0.71;100.00;101044.20;1808261;79;21326;-76
2021/11/12 03:04:58;;;;;;;14.70;11.95;;;;;;;0.70;100.00;101036.20;1808572;79;21141;-76
2021/11/12 03:08:03;;;;;;;20.23;13.25;;;;;;;0.65;100.00;101033.80;1809719;79;21354;-76
2021/11/12 03:11:09;;;;;;;19.77;12.53;;;;;;;0.59;100.00;101031.98;1809311;79;21358;-76
2021/11/12 03:14:15;;;;;;;19.17;13.58;;;;;;;0.55;100.00;101026.39;1809772;79;21319;-76
2021/11/12 03:17:22;;;;;;;18.62;11.28;;;;;;;0.49;100.00;101019.56;1810126;79;21287;-76
2021/11/12 03:20:28;;;;;;;16.95;12.25;;;;;;;0.50;100.00;101014.56;1810033;79;21691;-76
2021/11/12 03:23:41;;;;;;;17.15;12.10;;;;;;;0.49;100.00;101000.72;1809690;79;21835;-76
2021/11/12 03:26:47;;;;;;;17.50;12.37;;;;;;;0.47;100.00;101006.66;1808976;79;21207;-76
2021/11/12 03:47:14;;;;;;;23.27;14.20;;;;;;;0.64;100.00;100984.09;1797841;79;21251;-76
2021/11/12 04:06:42;;;;;;;20.10;11.50;;;;;;;0.69;100.00;100964.47;1778076;79;21298;-76
2021/11/12 05:10:29;;;;;;;10.53;7.55;;;;;;;0.83;100.00;100893.56;1809628;79;21291;-77
2021/11/12 05:50:15;;;;;;;11.57;7.35;;;;;;;1.91;100.00;100886.72;1757624;81;21364;-75
2021/11/12 05:56:39;;;;;;;13.05;7.85;;;;;;;2.13;100.00;100877.50;1766517;81;21899;-77
2021/11/12 05:59:45;;;;;;;10.40;7.10;;;;;;;2.24;100.00;100872.69;1748067;80;21633;-78
2021/11/12 06:02:51;;;;;;;13.88;7.70;;;;;;;2.34;100.00;100879.14;1741845;81;21182;-78
2021/11/12 06:05:56;;;;;;;9.73;6.62;;;;;;;2.48;100.00;100883.56;1748030;80;21156;-78
2021/11/12 06:09:02;;;;;;;14.87;7.45;;;;;;;2.66;100.00;100885.42;1733384;81;21311;-78
2021/11/12 06:12:11;;;;;;;7.95;6.28;;;;;;;2.86;100.00;100885.30;1737604;81;21225;-78
2021/11/12 06:15:16;;;;;;;12.05;7.35;;;;;;;3.05;100.00;100887.87;1740656;81;21353;-78
2021/11/12 06:18:22;;;;;;;14.55;9.25;;;;;;;3.23;100.00;100894.25;1744851;81;21917;-78
2021/11/12 06:21:29;;;;;;;14.43;8.53;;;;;;;3.38;99.68;100885.47;1746306;81;21199;-78
2021/11/12 06:24:35;;;;;;;16.37;8.73;;;;;;;3.49;98.86;100878.77;1747756;81;21218;-78
2021/11/12 06:27:40;;;;;;;16.93;9.68;;;;;;;3.54;97.93;100881.98;1748548;81;21311;-78
2021/11/12 06:30:48;;;;;;;15.23;9.63;;;;;;;3.62;97.42;100886.30;1742639;81;21200;-78
2021/11/12 06:33:57;;;;;;;16.82;7.72;;;;;;;3.74;97.08;100883.16;1752687;80;21927;-78
2021/11/12 06:37:02;;;;;;;14.93;8.48;;;;;;;3.85;96.55;100879.11;1755832;80;21166;-78
2021/11/12 06:40:07;;;;;;;13.10;7.92;;;;;;;3.92;96.06;100873.61;1741188;80;21344;-79
2021/11/12 06:50:12;;;;;;;30.90;12.58;;;;;;;4.10;95.19;100861.83;1753074;80;21319;-79
2021/11/12 06:53:07;;;;;;;14.65;7.33;;;;;;;4.22;95.30;100863.55;1736110;80;21205;-79
2021/11/12 06:56:13;;;;;;;11.65;6.92;;;;;;;4.33;95.25;100853.23;1756712;80;21200;-79
2021/11/12 06:59:18;;;;;;;8.03;6.10;;;;;;;4.42;94.92;100859.73;1750114;80;21213;-79
2021/11/12 07:02:26;;;;;;;9.68;6.33;;;;;;;4.48;94.40;100849.77;1748714;80;21891;-79
2021/11/12 07:05:31;;;;;;;8.70;5.85;;;;;;;4.53;94.21;100846.20;1757679;80;21173;-78
2021/11/12 07:08:37;;;;;;;8.83;5.12;;;;;;;4.63;94.21;100845.81;1746392;80;21872;-79
2021/11/12 07:11:43;;;;;;;11.73;6.12;;;;;;;4.66;93.42;100841.97;1750992;81;21433;-79
2021/11/12 07:14:51;;;;;;;9.48;6.97;;;;;;;4.63;93.13;100843.10;1734449;81;21149;-78
2021/11/12 07:17:57;;;;;;;10.53;6.65;;;;;;;4.67;93.34;100835.09;1761564;80;21343;-78
2021/11/12 07:21:03;;;;;;;9.53;5.97;;;;;;;4.78;93.43;100832.35;1735536;81;21276;-79
2021/11/12 07:24:09;;;;;;;8.25;6.12;;;;;;;4.85;93.10;100821.39;1761647;80;21691;-79
2021/11/12 07:27:14;;;;;;;8.15;6.72;;;;;;;4.98;93.13;100812.22;1751466;81;21287;-79
2021/11/12 07:30:20;;;;;;;9.95;6.42;;;;;;;5.04;92.72;100811.72;1757405;81;22001;-79
2021/11/12 07:33:25;;;;;;;9.93;7.28;;;;;;;5.11;92.73;100806.13;1752120;81;22535;-79
2021/11/12 07:36:39;;;;;;;9.75;7.33;;;;;;;5.19;92.75;100799.58;1751288;80;21212;-79
2021/11/12 07:43:18;;;;;;;11.08;6.35;;;;;;;5.34;92.51;100793.34;1746929;80;21319;-79
2021/11/12 07:46:14;;;;;;;13.10;6.85;;;;;;;5.41;92.77;100799.98;1743911;81;21268;-79
2021/11/12 07:49:20;;;;;;;8.40;6.47;;;;;;;5.50;92.82;100796.95;1745376;80;21276;-79
2021/11/12 07:52:27;;;;;;;14.10;8.33;;;;;;;5.62;93.11;100794.55;1751992;80;21724;-79
2021/11/12 07:55:33;;;;;;;11.63;6.50;;;;;;;5.68;92.83;100783.14;1740212;80;21276;-79
2021/11/12 07:58:38;;;;;;;9.28;6.42;;;;;;;5.74;92.34;100783.10;1749881;80;21295;-79
2021/11/12 08:01:44;;;;;;;13.58;7.25;;;;;;;5.76;92.37;100775.70;1750223;81;21290;-79
2021/11/12 08:04:56;;;;;;;14.78;7.33;;;;;;;5.81;92.42;100768.02;1786539;79;21327;-78
2021/11/12 11:42:26;;;;;;;15.05;6.47;;;;;;;9.31;82.16;100528.50;1791822;79;28682;-76
2021/11/12 11:45:32;;;;;;;16.82;8.15;;;;;;;9.32;80.96;100525.30;1754478;82;21335;-76
2021/11/12 11:48:47;;;;;;;15.05;8.98;;;;;;;9.31;80.46;100529.87;1765280;79;21282;-75
2021/11/12 11:52:10;;;;;;;14.95;8.00;;;;;;;9.31;80.39;100520.31;1719847;83;21247;-76
2021/11/12 11:55:15;;;;;;;18.42;8.58;;;;;;;9.30;79.54;100519.98;1737764;82;21260;-76
2021/11/12 11:58:43;;;;;;;13.38;8.25;;;;;;;9.28;79.43;100524.75;1753140;82;21929;-76
2021/11/12 12:02:07;;;;;;;6.05;3.92;;;;;;;9.26;79.62;100526.77;1783162;80;21212;-77
2021/11/12 12:05:13;;;;;;;6.15;3.30;;;;;;;9.23;79.70;100524.39;1751664;82;21260;-77
2021/11/12 12:08:36;;;;;;;5.97;3.33;;;;;;;9.23;80.20;100524.91;1750427;81;21795;-77
2021/11/12 12:12:00;;;;;;;7.85;3.37;;;;;;;9.24;80.38;100532.92;1751359;82;21874;-78
2021/11/12 12:15:16;;;;;;;8.55;4.20;;;;;;;9.24;80.55;100530.19;1740782;82;21248;-77
2021/11/12 12:18:25;;;;;;;7.92;3.52;;;;;;;9.25;80.68;100526.95;1733927;82;21545;-75
2021/11/12 12:21:45;;;;;;;8.93;3.70;;;;;;;9.25;80.44;100529.16;1734162;82;21319;-75
2021/11/12 12:35:06;;;;;;;6.92;3.20;;;;;;;9.15;79.24;100528.43;1692087;83;21755;-76
2021/11/12 12:38:35;;;;;;;5.78;2.92;;;;;;;9.11;79.26;100529.25;1752561;80;21596;-75
2021/11/12 13:22:36;;;;;;;8.18;3.90;;;;;;;8.64;80.45;100511.04;1778821;80;21192;-76
2021/11/12 13:26:06;;;;;;;10.50;5.15;;;;;;;8.57;80.66;100512.19;1779732;80;21300;-76
2021/11/12 13:29:13;;;;;;;19.62;11.70;;;;;;;8.52;80.82;100509.59;1753405;82;21337;-76
2021/11/12 13:32:19;;;;;;;28.35;13.58;;;;;;;8.44;81.12;100516.68;1753354;81;21817;-76
2021/11/12 13:35:38;;;;;;;24.32;13.38;;;;;;;8.39;81.38;100511.36;1747532;82;21192;-76
2021/11/12 13:38:49;;;;;;;33.08;17.48;;;;;;;8.35;81.63;100509.92;1747702;82;21294;-76
2021/11/12 13:41:59;;;;;;;41.10;20.05;;;;;;;8.28;81.86;100515.16;1751790;80;21390;-76
2021/11/12 13:45:05;;;;;;;45.52;22.42;;;;;;;8.24;82.13;100521.08;1766591;81;21287;-76
2021/11/12 13:48:15;;;;;;;58.95;31.40;;;;;;;8.17;82.32;100523.04;1765590;81;21817;-77
2021/11/12 13:51:22;;;;;;;60.55;32.25;;;;;;;8.12;82.59;100516.34;1766142;81;21608;-76
2021/11/12 13:54:28;;;;;;;56.58;27.95;;;;;;;8.05;82.90;100523.45;1765383;81;21373;-76
2021/11/12 13:57:34;;;;;;;41.73;21.68;;;;;;;7.97;83.28;100522.84;1765754;81;21381;-77
2021/11/12 14:00:40;;;;;;;23.95;13.60;;;;;;;7.91;83.62;100518.87;1766199;81;21295;-76
2021/11/12 14:03:47;;;;;;;18.23;8.88;;;;;;;7.86;83.99;100521.21;1766178;81;21818;-76
2021/11/12 14:06:57;;;;;;;18.70;7.60;;;;;;;7.78;84.36;100517.02;1766215;81;21287;-76
2021/11/12 14:10:20;;;;;;;13.60;6.90;;;;;;;7.71;84.70;100521.36;1765005;80;21185;-76
2021/11/12 14:13:28;;;;;;;18.75;7.60;;;;;;;7.63;84.99;100525.37;1765653;81;21342;-77
2021/11/12 14:16:48;;;;;;;15.00;7.03;;;;;;;7.54;85.37;100527.64;1766082;81;21306;-76
2021/11/12 14:19:56;;;;;;;17.82;7.90;;;;;;;7.49;85.68;100529.45;1766496;81;21192;-76
2021/11/12 14:22:56;;;;;;;21.00;9.23;;;;;;;7.42;86.03;100534.63;1766030;81;21350;-76
2021/11/12 14:26:17;;;;;;;20.17;9.45;;;;;;;7.38;86.29;100534.56;1766146;81;21852;-75
2021/11/12 14:29:18;;;;;;;16.57;8.48;;;;;;;7.32;86.59;100535.17;1764898;81;21339;-75
2021/11/12 14:36:02;;;;;;;19.73;8.45;;;;;;;7.20;86.93;100543.19;1735652;82;21808;-75
2021/11/12 14:39:05;;;;;;;17.67;8.90;;;;;;;7.13;87.16;100544.27;1734546;82;21212;-75
2021/11/12 14:42:52;;;;;;;17.12;9.70;;;;;;;7.05;87.42;100550.09;1735887;82;21365;-75
2021/11/12 14:45:31;;;;;;;21.05;10.20;;;;;;;6.96;87.60;100557.77;1727931;83;21213;-76
2021/11/12 14:48:37;;;;;;;12.58;8.85;;;;;;;6.88;87.84;100560.74;1761294;81;21357;-75
2021/11/12 14:55:12;;;;;;;19.15;10.40;;;;;;;6.76;88.27;100572.77;1762207;81;21715;-76
2021/11/12 14:58:21;;;;;;;20.62;9.80;;;;;;;6.70;88.47;100572.00;1762221;81;21318;-76
2021/11/12 15:01:32;;;;;;;24.07;9.35;;;;;;;6.65;88.69;100574.30;1760871;81;21300;-75
2021/11/12 15:04:39;;;;;;;16.30;9.68;;;;;;;6.61;88.87;100574.23;1729187;83;21232;-76
2021/11/12 15:07:54;;;;;;;21.77;10.53;;;;;;;6.55;89.08;100587.05;1727881;83;21848;-75
2021/11/12 15:10:55;;;;;;;22.45;10.50;;;;;;;6.46;89.30;100586.04;1727675;83;21183;-75
2021/11/12 15:14:06;;;;;;;17.32;9.00;;;;;;;6.37;89.60;100585.03;1728049;83;21935;-75
2021/11/12 15:17:11;;;;;;;24.52;11.43;;;;;;;6.32;89.89;100584.61;1734841;81;21290;-75
2021/11/12 15:20:17;;;;;;;16.25;10.03;;;;;;;6.28;90.16;100595.39;1747590;82;21313;-75
2021/11/12 15:27:08;;;;;;;18.80;8.98;;;;;;;6.23;90.17;100603.61;1747624;82;21895;-75
2021/11/12 15:30:23;;;;;;;20.72;9.63;;;;;;;6.15;90.04;100610.59;1746496;82;21353;-75
2021/11/12 15:33:25;;;;;;;17.27;9.43;;;;;;;6.09;90.20;100611.67;1745732;80;21413;-75
2021/11/12 15:36:33;;;;;;;22.37;9.70;;;;;;;6.01;90.34;100607.42;1745222;82;21305;-75
2021/11/12 15:39:52;;;;;;;13.20;7.50;;;;;;;5.95;90.45;100615.64;1746616;82;21569;-75
2021/11/12 15:42:59;;;;;;;16.48;9.13;;;;;;;5.90;90.49;100621.95;1747654;82;21691;-76
2021/11/12 15:46:04;;;;;;;19.82;8.10;;;;;;;5.82;90.62;100626.70;1746526;80;21341;-75
2021/11/12 15:49:04;;;;;;;15.68;8.20;;;;;;;5.76;90.86;100629.98;1768530;80;21786;-77
2021/11/12 15:52:11;;;;;;;13.68;7.85;;;;;;;5.70;91.24;100624.25;1777764;80;21383;-77
2021/11/12 15:58:56;;;;;;;15.65;8.38;;;;;;;5.63;91.96;100619.85;1746809;82;21730;-77
2021/11/12 16:08:54;;;;;;;13.50;7.78;;;;;;;5.46;92.17;100635.41;1747513;82;22246;-76
2021/11/12 16:15:23;;;;;;;10.50;6.28;;;;;;;5.31;93.05;100635.77;1746547;82;21789;-77
2021/11/12 16:25:14;;;;;;;16.12;9.43;;;;;;;5.23;93.52;100639.67;1769150;80;21774;-76
2021/11/12 16:28:22;;;;;;;20.37;9.63;;;;;;;5.19;93.76;100642.28;1761417;80;21233;-77
2021/11/12 16:31:32;;;;;;;22.65;10.28;;;;;;;5.19;93.86;100644.99;1728307;81;21345;-76
2021/11/12 16:34:46;;;;;;;20.55;10.90;;;;;;;5.18;93.96;100651.41;1767197;80;21290;-77
2021/11/12 16:37:55;;;;;;;22.07;10.95;;;;;;;5.14;94.17;100649.96;1773459;80;21212;-77
2021/11/12 16:44:21;;;;;;;22.62;12.50;;;;;;;5.07;94.41;100660.95;1736086;82;21726;-76
2021/11/12 16:54:02;;;;;;;20.10;10.48;;;;;;;4.90;94.79;100659.72;1779360;80;21643;-78
2021/11/12 16:57:15;;;;;;;18.98;11.22;;;;;;;4.86;95.12;100661.82;1778214;80;21201;-77
2021/11/12 17:00:38;;;;;;;17.10;9.20;;;;;;;4.82;95.21;100656.30;1779592;80;22774;-76
2021/11/12 17:06:50;;;;;;;20.37;10.65;;;;;;;4.74;95.32;100664.20;1762909;80;21255;-77
2021/11/12 17:13:16;;;;;;;28.17;14.20;;;;;;;4.67;95.57;100665.73;1773234;81;21315;-76
2021/11/12 17:46:49;;;;;;;21.82;13.15;;;;;;;4.35;97.83;100676.06;1755414;80;21614;-76
2021/11/12 17:53:44;;;;;;;20.52;11.12;;;;;;;4.33;97.90;100675.84;1785779;80;21314;-76
2021/11/12 18:03:13;;;;;;;22.58;12.58;;;;;;;4.29;98.33;100685.20;1728688;80;21959;-76
2021/11/12 18:06:18;;;;;;;23.92;13.18;;;;;;;4.31;98.80;100677.80;1785171;80;21305;-76
2021/11/12 21:44:27;;;;;;;42.48;25.50;;;;;;;5.06;100.00;100764.49;1782637;80;21314;-75
2021/11/12 21:47:28;;;;;;;46.02;25.70;;;;;;;5.12;100.00;100768.53;1778840;79;21687;-76
2021/11/12 21:50:33;;;;;;;45.75;26.68;;;;;;;5.18;99.81;100759.04;1774065;80;21766;-76
2021/11/12 21:53:40;;;;;;;40.50;25.30;;;;;;;5.24;99.50;100770.20;1773870;81;21290;-76
2021/11/12 21:56:44;;;;;;;40.40;25.12;;;;;;;5.30;99.13;100779.67;1776528;81;21267;-76
2021/11/12 21:59:51;;;;;;;41.05;25.17;;;;;;;5.34;98.74;100779.28;1775853;80;21738;-77
2021/11/12 22:03:02;;;;;;;39.60;26.42;;;;;;;5.41;98.34;100781.45;1775371;80;21730;-77
2021/11/12 22:06:07;;;;;;;49.25;25.75;;;;;;;5.47;98.01;100774.17;1775716;81;21192;-77
2021/11/12 22:09:12;;;;;;;42.53;26.07;;;;;;;5.53;97.69;100774.98;1774367;81;21859;-77
2021/11/12 22:12:20;;;;;;;46.33;26.52;;;;;;;5.57;97.32;100778.66;1776868;81;21727;-76
2021/11/12 22:15:26;;;;;;;42.35;25.15;;;;;;;5.60;96.95;100778.91;1776716;80;21274;-76
2021/11/12 22:18:32;;;;;;;42.45;25.48;;;;;;;5.63;96.62;100785.41;1775027;79;22165;-76
2021/11/12 22:21:37;;;;;;;39.88;25.55;;;;;;;5.66;96.33;100787.00;1776506;81;21215;-77
2021/11/12 22:24:43;;;;;;;51.23;26.52;;;;;;;5.66;96.07;100790.58;1775929;80;21297;-77
2021/11/12 22:27:51;;;;;;;41.18;26.27;;;;;;;5.67;95.89;100795.50;1775339;81;21334;-76
2021/11/12 22:30:58;;;;;;;49.23;26.55;;;;;;;5.67;95.78;100803.64;1774045;81;21361;-76
2021/11/12 22:34:03;;;;;;;45.78;28.60;;;;;;;5.69;95.75;100801.64;1775394;81;21219;-76
2021/11/12 22:37:09;;;;;;;46.00;26.65;;;;;;;5.71;95.72;100800.53;1775515;81;21294;-76
2021/11/12 22:40:16;;;;;;;45.80;25.82;;;;;;;5.75;95.57;100802.49;1775676;81;21302;-76
2021/11/12 22:43:21;;;;;;;43.98;27.07;;;;;;;5.77;95.23;100804.06;1775642;80;21184;-76
2021/11/12 22:46:27;;;;;;;49.80;28.05;;;;;;;5.77;95.04;100806.78;1775630;79;21183;-76
2021/11/12 22:49:32;;;;;;;45.88;27.75;;;;;;;5.78;94.95;100808.49;1773854;81;21836;-76
2021/11/12 22:52:38;;;;;;;42.13;27.27;;;;;;;5.78;94.93;100809.84;1773676;80;21207;-76
2021/11/12 22:55:44;;;;;;;50.65;29.40;;;;;;;5.80;94.84;100814.66;1775490;80;21298;-76
2021/11/12 22:58:49;;;;;;;56.33;29.63;;;;;;;5.81;94.83;100812.30;1775158;80;21322;-77
2021/11/12 23:01:55;;;;;;;47.10;29.10;;;;;;;5.81;94.70;100809.59;1784908;79;21299;-77
2021/11/12 23:05:01;;;;;;;48.35;29.67;;;;;;;5.82;94.60;100813.16;1812850;79;21371;-76
2021/11/12 23:08:08;;;;;;;48.78;30.45;;;;;;;5.82;94.45;100819.45;1814114;79;21306;-76
2021/11/12 23:11:14;;;;;;;56.18;32.88;;;;;;;5.82;94.23;100822.17;1811235;79;21212;-76
2021/11/12 23:14:19;;;;;;;56.28;31.20;;;;;;;5.81;94.01;100820.45;1811215;79;21291;-76
2021/11/12 23:17:26;;;;;;;58.48;31.30;;;;;;;5.83;93.84;100821.66;1800338;79;21360;-77
2021/11/12 23:20:32;;;;;;;55.17;32.42;;;;;;;5.81;93.76;100839.95;1785646;80;21307;-76
2021/11/12 23:23:39;;;;;;;54.67;32.88;;;;;;;5.79;93.91;100843.31;1812662;79;21813;-76
2021/11/12 23:26:45;;;;;;;52.98;33.50;;;;;;;5.74;94.00;100842.82;1816466;79;21687;-77
2021/11/12 23:29:52;;;;;;;54.38;30.90;;;;;;;5.71;94.19;100843.96;1815539;79;21858;-77
2021/11/12 23:32:58;;;;;;;60.15;34.60;;;;;;;5.67;94.31;100846.57;1793641;79;21845;-77
2021/11/12 23:36:02;;;;;;;63.35;34.60;;;;;;;5.64;94.40;100854.97;1782752;80;21846;-77
2021/11/12 23:39:10;;;;;;;53.90;32.75;;;;;;;5.60;94.46;100852.18;1817472;79;21327;-77
2021/11/12 23:42:17;;;;;;;58.68;34.30;;;;;;;5.56;94.52;100842.57;1818106;79;21323;-76
2021/11/12 23:45:22;;;;;;;63.42;33.53;;;;;;;5.51;94.66;100859.25;1817949;79;21267;-77
2021/11/12 23:48:28;;;;;;;56.60;34.90;;;;;;;5.44;94.81;100847.67;1787965;79;21941;-77
2021/11/12 23:51:34;;;;;;;57.13;33.20;;;;;;;5.37;94.92;100850.91;1783047;80;21346;-76
2021/11/12 23:54:38;;;;;;;55.00;31.85;;;;;;;5.30;95.03;100860.55;1781347;80;21864;-77
2021/11/12 23:57:44;;;;;;;50.55;31.07;;;;;;;5.24;95.23;100862.92;1781662;80;21326;-77
